createdAt,value
2022-07-25T00:00:23.355Z,100486.64
2022-07-25T00:03:18.516Z,100486.11
2022-07-25T00:06:13.480Z,100484.77
2022-07-25T00:09:10.454Z,100476.63
2022-07-25T00:12:02.427Z,100470.67
2022-07-25T00:14:56.695Z,100472.86
2022-07-25T00:17:49.719Z,100473.95
2022-07-25T00:20:41.622Z,100470.45
2022-07-25T00:23:33.537Z,100471.24
2022-07-25T00:26:25.671Z,100475.05
2022-07-25T00:29:17.836Z,100469.62
2022-07-25T00:32:10.531Z,100471.55
2022-07-25T00:35:04.012Z,100476.97
2022-07-25T00:37:56.465Z,100478.06
2022-07-25T00:40:54.177Z,100467.21
2022-07-25T00:43:48.714Z,100468.00
2022-07-25T00:46:42.640Z,100457.15
2022-07-25T00:49:34.722Z,100457.97
2022-07-25T00:52:27.592Z,100458.24
2022-07-25T00:55:20.481Z,100460.16
2022-07-25T00:58:12.865Z,100452.81
2022-07-25T01:01:06.281Z,100457.15
2022-07-25T01:03:58.611Z,100459.86
2022-07-25T01:06:50.984Z,100459.06
2022-07-25T01:09:43.141Z,100466.11
2022-07-25T01:12:45.416Z,100464.20
2022-07-25T01:15:37.753Z,100457.97
2022-07-25T01:18:31.981Z,100461.48
2022-07-25T01:21:24.659Z,100455.53
2022-07-25T01:24:17.181Z,100453.91
2022-07-25T01:27:09.674Z,100454.97
2022-07-25T01:30:13.893Z,100456.06
2022-07-25T01:33:06.770Z,100452.30
2022-07-25T01:35:59.356Z,100464.25
2022-07-25T01:38:51.932Z,100465.66
2022-07-25T01:41:47.171Z,100468.11
2022-07-25T01:44:39.476Z,100465.97
2022-07-25T01:47:32.126Z,100465.14
2022-07-25T01:50:24.394Z,100464.34
2022-07-25T01:53:17.216Z,100460.28
2022-07-25T01:56:13.307Z,100454.86
2022-07-25T01:59:05.984Z,100453.53
2022-07-25T02:01:58.833Z,100457.34
2022-07-25T02:04:51.093Z,100455.99
2022-07-25T02:07:43.476Z,100456.56
2022-07-25T02:10:36.555Z,100452.53
2022-07-25T02:13:29.775Z,100450.08
2022-07-25T02:16:29.228Z,100438.70
2022-07-25T02:19:22.640Z,100439.80
2022-07-25T02:22:14.853Z,100437.39
2022-07-25T02:25:08.136Z,100436.03
2022-07-25T02:28:00.397Z,100436.59
2022-07-25T02:30:53.505Z,100429.03
2022-07-25T02:33:45.502Z,100432.84
2022-07-25T02:36:37.813Z,100433.70
2022-07-25T02:39:31.028Z,100435.59
2022-07-25T02:42:24.022Z,100443.20
2022-07-25T02:45:16.657Z,100445.11
2022-07-25T02:48:10.062Z,100449.71
2022-07-25T02:51:02.397Z,100446.20
2022-07-25T02:53:57.762Z,100452.98
2022-07-25T02:56:51.144Z,100451.89
2022-07-25T02:59:42.827Z,100453.81
2022-07-25T03:02:36.092Z,100451.37
2022-07-25T03:05:28.533Z,100457.88
2022-07-25T03:08:20.533Z,100469.55
2022-07-25T03:11:12.546Z,100469.02
2022-07-25T03:14:05.083Z,100471.20
2022-07-25T03:16:57.745Z,100470.95
2022-07-25T03:19:50.128Z,100470.45
2022-07-25T03:22:42.488Z,100468.56
2022-07-25T03:25:35.012Z,100467.20
2022-07-25T03:28:26.975Z,100477.81
2022-07-25T03:31:19.265Z,100479.69
2022-07-25T03:34:12.129Z,100476.98
2022-07-25T03:37:04.672Z,100482.14
2022-07-25T03:39:57.226Z,100483.23
2022-07-25T03:42:50.343Z,100489.45
2022-07-25T03:45:42.758Z,100486.73
2022-07-25T03:48:35.841Z,100488.36
2022-07-25T03:51:28.563Z,100481.84
2022-07-25T03:54:21.044Z,100482.67
2022-07-25T03:57:13.101Z,100484.55
2022-07-25T04:00:07.096Z,100477.25
2022-07-25T04:02:59.296Z,100484.30
2022-07-25T04:05:51.462Z,100487.80
2022-07-25T04:08:44.393Z,100481.58
2022-07-25T04:11:36.738Z,100476.95
2022-07-25T04:14:28.980Z,100480.49
2022-07-25T04:17:21.609Z,100480.20
2022-07-25T04:20:15.611Z,100488.86
2022-07-25T04:23:08.552Z,100486.71
2022-07-25T04:26:01.319Z,100491.58
2022-07-25T04:28:54.030Z,100491.87
2022-07-25T04:31:45.903Z,100494.28
2022-07-25T04:34:38.318Z,100497.27
2022-07-25T04:37:30.507Z,100489.69
2022-07-25T04:40:25.404Z,100490.78
2022-07-25T04:43:17.901Z,100491.02
2022-07-25T04:46:10.170Z,100498.59
2022-07-25T04:49:02.399Z,100501.56
2022-07-25T04:51:54.772Z,100501.56
2022-07-25T04:54:46.996Z,100498.85
2022-07-25T04:57:39.535Z,100502.36
2022-07-25T05:00:31.858Z,100501.80
2022-07-25T05:03:24.174Z,100506.95
2022-07-25T05:06:16.243Z,100503.95
2022-07-25T05:09:09.128Z,100505.30
2022-07-25T05:12:01.154Z,100511.48
2022-07-25T05:14:54.408Z,100509.05
2022-07-25T05:17:46.718Z,100511.75
2022-07-25T05:20:39.592Z,100515.75
2022-07-25T05:23:31.878Z,100521.64
2022-07-25T05:26:24.173Z,100514.24
2022-07-25T05:29:16.246Z,100513.94
2022-07-25T05:32:09.218Z,100520.92
2022-07-25T05:35:02.056Z,100523.55
2022-07-25T05:37:54.449Z,100525.66
2022-07-25T05:40:46.933Z,100527.22
2022-07-25T05:43:39.790Z,100525.20
2022-07-25T05:46:33.754Z,100528.34
2022-07-25T05:49:26.623Z,100530.61
2022-07-25T05:52:18.676Z,100524.57
2022-07-25T05:55:13.106Z,100514.68
2022-07-25T05:58:05.025Z,100509.63
2022-07-25T06:00:57.679Z,100518.69
2022-07-25T06:03:50.638Z,100509.30
2022-07-25T06:06:42.621Z,100507.81
2022-07-25T06:09:35.398Z,100511.80
2022-07-25T06:12:27.685Z,100507.85
2022-07-25T06:15:22.861Z,100515.63
2022-07-25T06:18:19.287Z,100519.80
2022-07-25T06:21:11.754Z,100521.58
2022-07-25T06:24:05.241Z,100521.41
2022-07-25T06:26:57.719Z,100523.96
2022-07-25T06:29:50.535Z,100526.73
2022-07-25T06:32:43.342Z,100527.06
2022-07-25T06:35:35.544Z,100524.98
2022-07-25T06:38:27.398Z,100525.58
2022-07-25T06:41:19.848Z,100532.77
2022-07-25T06:44:13.295Z,100532.28
2022-07-25T06:47:06.037Z,100519.77
2022-07-25T06:49:58.777Z,100524.41
2022-07-25T06:52:51.303Z,100522.28
2022-07-25T06:55:43.447Z,100522.06
2022-07-25T06:58:36.325Z,100528.91
2022-07-25T07:01:29.442Z,100527.86
2022-07-25T07:04:22.088Z,100535.05
2022-07-25T07:07:13.837Z,100524.02
2022-07-25T07:10:08.539Z,100525.51
2022-07-25T07:13:12.642Z,100528.91
2022-07-25T07:16:06.226Z,100521.91
2022-07-25T07:18:59.044Z,100521.66
2022-07-25T07:21:51.742Z,100514.95
2022-07-25T07:24:44.169Z,100523.02
2022-07-25T07:27:36.570Z,100521.77
2022-07-25T07:30:58.663Z,100528.39
2022-07-25T07:33:42.679Z,100529.11
2022-07-25T07:36:34.618Z,100531.71
2022-07-25T07:39:27.432Z,100526.91
2022-07-25T07:42:19.188Z,100535.45
2022-07-25T07:45:26.844Z,100535.65
2022-07-25T07:48:19.008Z,100525.37
2022-07-25T07:51:12.101Z,100527.17
2022-07-25T07:54:21.603Z,100529.44
2022-07-25T07:57:15.148Z,100520.94
2022-07-25T08:00:13.490Z,100526.42
2022-07-25T08:03:09.790Z,100528.86
2022-07-25T08:06:03.189Z,100526.99
2022-07-25T08:08:54.971Z,100528.00
2022-07-25T08:11:46.892Z,100532.84
2022-07-25T08:14:39.025Z,100525.48
2022-07-25T08:17:31.705Z,100532.24
2022-07-25T08:20:40.173Z,100521.80
2022-07-25T08:23:34.974Z,100517.47
2022-07-25T08:26:28.285Z,100510.36
2022-07-25T08:29:25.009Z,100513.25
2022-07-25T08:32:21.221Z,100514.38
2022-07-25T08:35:15.386Z,100507.74
2022-07-25T08:38:08.194Z,100509.66
2022-07-25T08:41:03.342Z,100503.07
2022-07-25T08:43:56.254Z,100515.28
2022-07-25T08:46:49.800Z,100513.33
2022-07-25T08:49:43.071Z,100502.95
2022-07-25T08:52:37.400Z,100508.34
2022-07-25T08:55:29.301Z,100500.25
2022-07-25T08:58:22.345Z,100506.14
2022-07-25T09:01:14.556Z,100509.78
2022-07-25T09:04:09.744Z,100504.22
2022-07-25T09:07:08.241Z,100505.31
2022-07-25T09:10:01.825Z,100511.39
2022-07-25T09:12:59.958Z,100506.20
2022-07-25T09:15:54.188Z,100507.28
2022-07-25T09:18:46.760Z,100505.84
2022-07-25T09:21:40.069Z,100512.32
2022-07-25T09:24:33.895Z,100508.51
2022-07-25T09:27:26.321Z,100510.96
2022-07-25T09:30:21.776Z,100509.39
2022-07-25T09:33:14.387Z,100507.12
2022-07-25T09:36:14.620Z,100506.48
2022-07-25T09:39:07.242Z,100507.63
2022-07-25T09:41:59.547Z,100494.69
2022-07-25T09:45:05.146Z,100505.56
2022-07-25T09:48:00.085Z,100504.64
2022-07-25T09:50:53.222Z,100492.37
2022-07-25T09:53:45.864Z,100492.25
2022-07-25T09:56:38.487Z,100492.47
2022-07-25T09:59:30.395Z,100494.98
2022-07-25T10:02:35.358Z,100495.09
2022-07-25T10:05:41.902Z,100483.59
2022-07-25T10:08:38.451Z,100478.75
2022-07-25T10:11:32.107Z,100465.26
2022-07-25T10:14:24.495Z,100475.47
2022-07-25T10:17:24.767Z,100465.09
2022-07-25T10:20:17.774Z,100461.70
2022-07-25T10:23:24.608Z,100472.84
2022-07-25T10:26:19.805Z,100454.34
2022-07-25T10:29:15.548Z,100457.20
2022-07-25T10:32:13.933Z,100462.27
2022-07-25T10:35:18.017Z,100452.92
2022-07-25T10:38:10.702Z,100445.28
2022-07-25T10:41:06.091Z,100447.64
2022-07-25T10:44:02.183Z,100440.43
2022-07-25T10:47:06.157Z,100444.31
2022-07-25T10:53:13.884Z,100439.50
2022-07-25T10:56:11.753Z,100435.20
2022-07-25T10:59:05.423Z,100430.51
2022-07-25T11:01:58.916Z,100425.12
2022-07-25T11:05:03.322Z,100415.46
2022-07-25T11:08:21.607Z,100409.60
2022-07-25T11:11:10.596Z,100409.66
2022-07-25T11:14:03.441Z,100409.51
2022-07-25T11:16:57.483Z,100410.91
2022-07-25T11:19:57.685Z,100397.70
2022-07-25T11:22:55.430Z,100391.95
2022-07-25T11:25:47.954Z,100393.13
2022-07-25T11:28:49.310Z,100386.81
2022-07-25T11:31:42.082Z,100387.75
2022-07-25T11:34:36.237Z,100391.11
2022-07-25T11:37:29.533Z,100389.66
2022-07-25T11:40:23.492Z,100389.36
2022-07-25T11:43:23.099Z,100383.11
2022-07-25T11:46:15.780Z,100375.34
2022-07-25T11:49:09.475Z,100377.11
2022-07-25T11:52:01.611Z,100380.26
2022-07-25T11:54:58.630Z,100378.23
2022-07-25T11:57:51.443Z,100372.49
2022-07-25T12:00:47.078Z,100368.56
2022-07-25T12:03:42.770Z,100376.13
2022-07-25T12:06:35.679Z,100365.59
2022-07-25T12:09:27.957Z,100364.25
2022-07-25T12:12:20.581Z,100359.00
2022-07-25T12:15:15.330Z,100351.73
2022-07-25T12:18:09.600Z,100342.81
2022-07-25T12:21:01.777Z,100348.94
2022-07-25T12:23:54.067Z,100349.19
2022-07-25T12:26:45.859Z,100336.77
2022-07-25T12:29:37.927Z,100337.77
2022-07-25T12:32:31.750Z,100332.59
2022-07-25T12:35:24.683Z,100326.28
2022-07-25T12:38:16.893Z,100330.25
2022-07-25T12:41:17.477Z,100326.31
2022-07-25T12:44:13.548Z,100324.80
2022-07-25T12:47:06.190Z,100320.56
2022-07-25T12:49:58.745Z,100315.11
2022-07-25T12:52:51.395Z,100305.30
2022-07-25T12:55:44.169Z,100296.66
2022-07-25T12:58:36.097Z,100293.52
2022-07-25T13:01:28.419Z,100292.30
2022-07-25T13:04:20.701Z,100283.23
2022-07-25T13:07:14.420Z,100282.55
2022-07-25T13:10:10.339Z,100286.56
2022-07-25T13:13:02.377Z,100283.45
2022-07-25T13:15:54.772Z,100279.19
2022-07-25T13:18:47.006Z,100272.42
2022-07-25T13:21:39.502Z,100279.91
2022-07-25T13:24:31.625Z,100270.23
2022-07-25T13:27:24.739Z,100264.63
2022-07-25T13:30:17.233Z,100256.31
2022-07-25T13:33:11.067Z,100260.67
2022-07-25T13:36:03.532Z,100260.23
2022-07-25T13:38:56.745Z,100265.70
2022-07-25T13:41:49.257Z,100258.91
2022-07-25T13:44:42.393Z,100261.56
2022-07-25T13:47:36.996Z,100250.00
2022-07-25T13:50:28.835Z,100249.49
2022-07-25T13:53:22.870Z,100250.58
2022-07-25T13:56:16.381Z,100246.87
2022-07-25T13:59:08.612Z,100249.58
2022-07-25T14:02:00.979Z,100243.57
2022-07-25T14:04:53.456Z,100245.81
2022-07-25T14:07:45.824Z,100241.72
2022-07-25T14:10:38.270Z,100246.72
2022-07-25T14:13:30.703Z,100236.73
2022-07-25T14:16:24.094Z,100231.09
2022-07-25T14:19:17.920Z,100228.58
2022-07-25T14:22:10.567Z,100222.52
2022-07-25T14:25:03.325Z,100222.09
2022-07-25T14:27:56.009Z,100211.05
2022-07-25T14:30:48.240Z,100217.36
2022-07-25T14:33:41.399Z,100210.23
2022-07-25T14:36:33.850Z,100210.63
2022-07-25T14:39:26.291Z,100205.53
2022-07-25T14:42:18.923Z,100192.45
2022-07-25T14:45:15.098Z,100198.77
2022-07-25T14:48:08.886Z,100192.92
2022-07-25T14:51:01.590Z,100190.59
2022-07-25T14:53:54.469Z,100193.78
2022-07-25T14:56:46.691Z,100186.72
2022-07-25T14:59:38.881Z,100180.45
2022-07-25T15:02:31.340Z,100175.36
2022-07-25T15:05:23.536Z,100178.54
2022-07-25T15:08:16.157Z,100175.42
2022-07-25T15:11:08.630Z,100172.59
2022-07-25T15:14:03.773Z,100161.55
2022-07-25T15:16:55.837Z,100169.90
2022-07-25T15:19:48.182Z,100169.96
2022-07-25T15:22:40.039Z,100163.20
2022-07-25T15:26:00.570Z,100155.30
2022-07-25T15:28:45.019Z,100162.78
2022-07-25T15:31:39.169Z,100160.73
2022-07-25T15:34:32.950Z,100150.81
2022-07-25T15:37:25.394Z,100161.38
2022-07-25T15:40:17.934Z,100155.75
2022-07-25T15:43:11.922Z,100159.95
2022-07-25T15:46:04.599Z,100157.51
2022-07-25T15:48:58.130Z,100158.18
2022-07-25T15:51:50.199Z,100153.72
2022-07-25T15:54:42.755Z,100152.78
2022-07-25T15:57:34.583Z,100146.34
2022-07-25T16:00:29.651Z,100149.79
2022-07-25T16:03:24.357Z,100152.90
2022-07-25T16:06:21.126Z,100150.88
2022-07-25T16:09:14.067Z,100151.61
2022-07-25T16:12:06.829Z,100147.64
2022-07-25T16:14:59.838Z,100144.38
2022-07-25T16:17:53.849Z,100145.36
2022-07-25T16:20:46.166Z,100144.88
2022-07-25T16:23:43.761Z,100152.66
2022-07-25T16:26:37.808Z,100143.88
2022-07-25T16:29:30.887Z,100149.27
2022-07-25T16:32:24.121Z,100148.34
2022-07-25T16:35:16.227Z,100147.34
2022-07-25T16:38:09.753Z,100150.67
2022-07-25T16:41:02.047Z,100150.41
2022-07-25T16:43:53.346Z,100151.42
2022-07-25T16:46:46.676Z,100152.43
2022-07-25T16:49:39.184Z,100155.75
2022-07-25T16:52:31.679Z,100156.31
2022-07-25T16:55:24.458Z,100155.37
2022-07-25T16:58:17.142Z,100156.67
2022-07-25T17:01:09.260Z,100153.31
2022-07-25T17:04:02.613Z,100157.42
2022-07-25T17:06:55.610Z,100159.13
2022-07-25T17:09:47.959Z,100160.09
2022-07-25T17:12:41.972Z,100163.34
2022-07-25T17:15:34.646Z,100158.00
2022-07-25T17:18:26.925Z,100157.74
2022-07-25T17:21:21.872Z,100152.31
2022-07-25T17:24:14.577Z,100161.16
2022-07-25T17:27:07.769Z,100156.98
2022-07-25T17:30:00.431Z,100155.86
2022-07-25T17:32:53.828Z,100157.96
2022-07-25T17:35:46.228Z,100160.39
2022-07-25T17:38:38.705Z,100157.34
2022-07-25T17:41:30.965Z,100158.95
2022-07-25T17:44:22.938Z,100159.40
2022-07-25T17:47:14.775Z,100165.73
2022-07-25T17:50:09.018Z,100158.30
2022-07-25T17:53:02.475Z,100153.63
2022-07-25T17:55:55.018Z,100159.13
2022-07-25T17:58:46.944Z,100167.78
2022-07-25T18:01:40.328Z,100170.16
2022-07-25T18:04:32.681Z,100164.66
2022-07-25T18:07:25.357Z,100163.49
2022-07-25T18:10:18.603Z,100168.63
2022-07-25T18:13:10.855Z,100165.14
2022-07-25T18:16:03.343Z,100178.14
2022-07-25T18:18:55.154Z,100173.86
2022-07-25T18:21:48.156Z,100177.02
2022-07-25T18:24:41.025Z,100180.17
2022-07-25T18:27:33.521Z,100180.58
2022-07-25T18:30:29.153Z,100173.08
2022-07-25T18:33:22.401Z,100173.47
2022-07-25T18:36:15.155Z,100173.20
2022-07-25T18:39:07.739Z,100175.20
2022-07-25T18:42:00.240Z,100173.97
2022-07-25T18:44:52.417Z,100174.83
2022-07-25T18:47:45.310Z,100180.33
2022-07-25T18:50:37.503Z,100171.33
2022-07-25T18:53:29.589Z,100178.78
2022-07-25T18:56:22.165Z,100184.27
2022-07-25T18:59:13.791Z,100180.29
2022-07-25T19:02:07.057Z,100182.25
2022-07-25T19:04:59.998Z,100183.42
2022-07-25T19:07:52.759Z,100177.61
2022-07-25T19:10:44.999Z,100184.21
2022-07-25T19:13:49.513Z,100182.30
2022-07-25T19:16:43.916Z,100188.27
2022-07-25T19:19:36.249Z,100189.56
2022-07-25T19:22:28.533Z,100190.03
2022-07-25T19:25:21.593Z,100191.33
2022-07-25T19:28:15.653Z,100200.33
2022-07-25T19:31:08.849Z,100193.75
2022-07-25T19:34:01.392Z,100195.79
2022-07-25T19:36:55.976Z,100189.70
2022-07-25T19:39:49.287Z,100189.03
2022-07-25T19:42:42.134Z,100191.12
2022-07-25T19:45:34.787Z,100190.46
2022-07-25T19:48:27.448Z,100203.14
2022-07-25T19:51:19.483Z,100201.69
2022-07-25T19:54:11.975Z,100197.20
2022-07-25T19:57:05.195Z,100200.07
2022-07-25T19:59:57.672Z,100199.09
2022-07-25T20:02:50.505Z,100195.70
2022-07-25T20:05:43.050Z,100200.51
2022-07-25T20:08:35.335Z,100207.69
2022-07-25T20:11:28.257Z,100206.70
2022-07-25T20:14:20.238Z,100206.52
2022-07-25T20:17:12.552Z,100203.93
2022-07-25T20:20:05.872Z,100211.95
2022-07-25T20:22:58.436Z,100212.09
2022-07-25T20:25:50.402Z,100209.17
2022-07-25T20:28:42.640Z,100210.92
2022-07-25T20:31:35.316Z,100212.66
2022-07-25T20:34:27.818Z,100210.07
2022-07-25T20:37:21.087Z,100218.09
2022-07-25T20:40:16.254Z,100212.77
2022-07-25T20:43:09.178Z,100214.80
2022-07-25T20:46:03.151Z,100211.91
2022-07-25T20:48:59.200Z,100206.59
2022-07-25T20:51:54.598Z,100212.93
2022-07-25T20:54:47.366Z,100216.60
2022-07-25T20:57:40.177Z,100219.45
2022-07-25T21:00:32.894Z,100220.70
2022-07-25T21:03:25.115Z,100225.16
2022-07-25T21:06:17.683Z,100221.73
2022-07-25T21:09:10.940Z,100225.07
2022-07-25T21:12:04.645Z,100222.47
2022-07-25T21:14:57.619Z,100232.37
2022-07-25T21:17:49.579Z,100222.38
2022-07-25T21:20:43.126Z,100235.83
2022-07-25T21:23:35.656Z,100230.99
2022-07-25T21:26:27.853Z,100229.67
2022-07-25T21:29:19.646Z,100229.49
2022-07-25T21:32:13.959Z,100227.06
2022-07-25T21:35:06.689Z,100227.67
2022-07-25T21:37:58.861Z,100228.00
2022-07-25T21:40:51.524Z,100220.41
2022-07-25T21:43:44.518Z,100221.02
2022-07-25T21:46:36.678Z,100221.63
2022-07-25T21:49:46.814Z,100216.80
2022-07-25T21:52:39.968Z,100221.53
2022-07-25T21:55:32.506Z,100217.81
2022-07-25T21:58:24.674Z,100218.42
2022-07-25T22:01:17.893Z,100227.52
2022-07-25T22:04:10.391Z,100219.13
2022-07-25T22:07:02.543Z,100227.12
2022-07-25T22:09:54.834Z,100212.80
2022-07-25T22:12:47.000Z,100219.45
2022-07-25T22:15:39.155Z,100221.16
2022-07-25T22:18:31.471Z,100224.20
2022-07-25T22:21:23.762Z,100224.80
2022-07-25T22:24:15.958Z,100218.86
2022-07-25T22:27:08.424Z,100220.25
2022-07-25T22:30:00.354Z,100214.31
2022-07-25T22:32:53.484Z,100221.97
2022-07-25T22:35:45.778Z,100228.52
2022-07-25T22:38:39.241Z,100226.11
2022-07-25T22:41:31.438Z,100226.18
2022-07-25T22:44:23.187Z,100229.78
2022-07-25T22:47:15.495Z,100230.89
2022-07-25T22:50:11.867Z,100230.11
2022-07-25T22:53:04.471Z,100233.11
2022-07-25T22:55:56.946Z,100232.31
2022-07-25T22:58:50.610Z,100220.62
2022-07-25T23:01:43.530Z,100225.27
2022-07-25T23:04:35.593Z,100220.11
2022-07-25T23:07:28.283Z,100216.09
2022-07-25T23:10:20.772Z,100215.59
2022-07-25T23:13:13.246Z,100210.44
2022-07-25T23:16:05.745Z,100212.14
2022-07-25T23:19:04.390Z,100215.97
2022-07-25T23:21:56.556Z,100213.34
2022-07-25T23:24:48.914Z,100213.15
2022-07-25T23:27:42.567Z,100215.64
2022-07-25T23:30:40.058Z,100219.27
2022-07-25T23:33:32.735Z,100207.38
2022-07-25T23:36:25.283Z,100209.37
2022-07-25T23:39:17.985Z,100203.73
2022-07-25T23:42:10.037Z,100200.00
2022-07-25T23:45:03.596Z,100205.21
2022-07-25T23:47:59.304Z,100202.58
2022-07-25T23:50:51.677Z,100202.63
2022-07-25T23:53:43.401Z,100204.13
2022-07-25T23:56:36.024Z,100206.41
2022-07-25T23:59:27.932Z,100206.50
